createdAt,value
2018-09-09T00:00:02.817Z,0
2018-09-09T00:01:36.642Z,0
2018-09-09T00:02:52.667Z,0
2018-09-09T00:04:27.547Z,0
2018-09-09T00:05:43.718Z,0
2018-09-09T00:06:59.647Z,0
2018-09-09T00:08:15.622Z,0
2018-09-09T00:09:31.547Z,0
2018-09-09T00:11:05.396Z,0
2018-09-09T00:12:21.400Z,0
2018-09-09T00:13:37.344Z,0
2018-09-09T00:14:53.304Z,0
2018-09-09T00:16:09.370Z,0
2018-09-09T00:17:25.349Z,0
2018-09-09T00:18:41.415Z,0
2018-09-09T00:19:57.385Z,0
2018-09-09T00:21:13.348Z,0
2018-09-09T00:22:29.295Z,0
2018-09-09T00:24:04.190Z,0
2018-09-09T00:25:20.182Z,0
2018-09-09T00:26:36.261Z,0
2018-09-09T00:28:10.118Z,0
2018-09-09T00:29:26.060Z,0
2018-09-09T00:31:00.050Z,0
2018-09-09T00:32:15.976Z,0
2018-09-09T00:33:31.942Z,0
2018-09-09T00:34:48.016Z,0
2018-09-09T00:36:03.933Z,0
2018-09-09T00:37:19.849Z,0
2018-09-09T00:38:35.969Z,0
2018-09-09T00:39:52.009Z,0
2018-09-09T00:41:07.969Z,0
2018-09-09T00:42:23.924Z,0
2018-09-09T00:43:39.886Z,0
2018-09-09T00:44:55.841Z,0
2018-09-09T00:46:11.906Z,0
2018-09-09T00:47:45.750Z,0
2018-09-09T00:49:01.657Z,0
2018-09-09T00:50:17.645Z,0
2018-09-09T00:51:33.683Z,0
2018-09-09T00:52:49.690Z,0
2018-09-09T00:54:05.646Z,0
2018-09-09T00:55:21.598Z,0
2018-09-09T00:56:37.656Z,0
2018-09-09T00:57:53.569Z,0
2018-09-09T00:59:09.476Z,0
2018-09-09T01:00:25.397Z,0
2018-09-09T01:01:41.372Z,0
2018-09-09T01:02:57.843Z,0
2018-09-09T01:04:31.720Z,0
2018-09-09T01:05:47.647Z,0
2018-09-09T01:07:04.314Z,0
2018-09-09T01:08:38.125Z,0
2018-09-09T01:09:54.157Z,0
2018-09-09T01:11:10.280Z,0
2018-09-09T01:12:44.138Z,0
2018-09-09T01:14:00.038Z,0
2018-09-09T01:15:15.951Z,0
2018-09-09T01:16:31.935Z,0
2018-09-09T01:17:47.876Z,0
2018-09-09T01:19:03.853Z,0
2018-09-09T01:20:37.721Z,0
2018-09-09T01:21:53.781Z,0
2018-09-09T01:23:28.678Z,0
2018-09-09T01:24:44.648Z,0
2018-09-09T01:26:00.533Z,0
2018-09-09T01:27:16.467Z,0
2018-09-09T01:28:32.462Z,0
2018-09-09T01:29:48.492Z,0
2018-09-09T01:31:04.545Z,0
2018-09-09T01:32:20.671Z,0
2018-09-09T01:33:36.617Z,0
2018-09-09T01:34:52.662Z,0
2018-09-09T01:36:08.570Z,0
2018-09-09T01:37:24.516Z,0
2018-09-09T01:38:40.408Z,0
2018-09-09T01:39:56.448Z,0
2018-09-09T01:41:12.469Z,0
2018-09-09T01:42:28.705Z,0
2018-09-09T01:43:44.607Z,0
2018-09-09T01:45:00.591Z,0
2018-09-09T01:46:16.492Z,0
2018-09-09T01:47:32.487Z,0
2018-09-09T01:48:48.363Z,0
2018-09-09T01:50:04.419Z,0
2018-09-09T01:51:20.362Z,0
2018-09-09T01:54:10.199Z,0
2018-09-09T01:55:26.078Z,0
2018-09-09T01:56:41.989Z,0
2018-09-09T01:58:15.973Z,0
2018-09-09T01:59:31.892Z,0
2018-09-09T02:00:47.836Z,0
2018-09-09T02:02:03.836Z,0
2018-09-09T02:03:19.872Z,0
2018-09-09T02:04:35.797Z,0
2018-09-09T02:05:51.781Z,0
2018-09-09T02:07:07.786Z,0
2018-09-09T02:08:23.999Z,0
2018-09-09T02:09:39.918Z,0
2018-09-09T02:12:36.386Z,0
2018-09-09T02:13:52.491Z,0
2018-09-09T02:15:08.482Z,0
2018-09-09T02:16:24.476Z,0
2018-09-09T02:17:40.380Z,0
2018-09-09T02:18:56.389Z,0
2018-09-09T02:39:48.684Z,0
2018-09-09T02:41:04.704Z,0
2018-09-09T02:42:20.718Z,0
2018-09-09T02:43:36.769Z,0
2018-09-09T02:44:52.641Z,0
2018-09-09T02:46:08.633Z,0
2018-09-09T02:47:42.493Z,0
2018-09-09T02:48:58.474Z,0
2018-09-09T02:50:14.368Z,0
2018-09-09T02:51:30.263Z,0
2018-09-09T02:53:05.109Z,0
2018-09-09T02:54:21.067Z,0
2018-09-09T02:55:37.016Z,0
2018-09-09T02:57:10.889Z,0
2018-09-09T02:58:26.775Z,0
2018-09-09T02:59:42.872Z,0
2018-09-09T03:00:58.892Z,0
2018-09-09T03:02:33.700Z,0
2018-09-09T03:03:49.667Z,0
2018-09-09T03:05:05.593Z,0
2018-09-09T03:06:40.416Z,0
2018-09-09T03:07:56.431Z,0
2018-09-09T03:09:12.444Z,0
2018-09-09T03:10:28.390Z,0
2018-09-09T03:11:44.318Z,0
2018-09-09T03:13:00.203Z,0
2018-09-09T03:14:16.268Z,0
2018-09-09T03:15:50.279Z,0
2018-09-09T03:17:24.140Z,0
2018-09-09T03:18:40.133Z,0
2018-09-09T03:19:56.073Z,0
2018-09-09T03:21:30.096Z,0
2018-09-09T03:22:46.031Z,0
2018-09-09T03:24:02.088Z,0
2018-09-09T03:25:18.021Z,0
2018-09-09T03:26:33.972Z,0
2018-09-09T03:27:49.920Z,0
2018-09-09T03:29:05.946Z,0
2018-09-09T03:30:22.009Z,0
2018-09-09T03:31:37.969Z,0
2018-09-09T03:32:53.990Z,0
2018-09-09T03:34:09.945Z,0
2018-09-09T03:35:25.882Z,0
2018-09-09T03:36:41.800Z,0
2018-09-09T03:37:57.869Z,0
2018-09-09T03:39:13.814Z,0
2018-09-09T03:40:29.882Z,0
2018-09-09T03:41:45.865Z,0
2018-09-09T03:43:01.932Z,0
2018-09-09T03:44:18.029Z,0
2018-09-09T03:45:33.990Z,0
2018-09-09T03:46:49.944Z,0
2018-09-09T03:48:05.900Z,0
2018-09-09T03:49:21.843Z,0
2018-09-09T03:50:55.697Z,0
2018-09-09T03:52:11.683Z,0
2018-09-09T03:53:27.671Z,0
2018-09-09T03:54:43.581Z,0
2018-09-09T03:55:59.517Z,0
2018-09-09T03:57:15.477Z,0
2018-09-09T03:58:31.508Z,0
2018-09-09T03:59:47.518Z,0
2018-09-09T04:01:03.534Z,0
2018-09-09T04:02:19.574Z,0
2018-09-09T04:03:35.553Z,0
2018-09-09T04:04:51.527Z,0
2018-09-09T04:06:07.546Z,0
2018-09-09T04:07:23.533Z,0
2018-09-09T04:08:39.441Z,0
2018-09-09T04:09:55.503Z,0
2018-09-09T04:11:11.485Z,0
2018-09-09T04:12:27.447Z,0
2018-09-09T04:14:01.441Z,0
2018-09-09T04:15:17.341Z,0
2018-09-09T04:16:33.281Z,0
2018-09-09T04:17:49.308Z,0
2018-09-09T04:19:05.212Z,0
2018-09-09T04:20:21.144Z,0
2018-09-09T04:21:37.163Z,0
2018-09-09T04:22:53.275Z,0
2018-09-09T04:24:09.163Z,0
2018-09-09T04:25:25.380Z,0
2018-09-09T04:26:41.370Z,0
2018-09-09T04:27:57.334Z,0
2018-09-09T04:29:13.237Z,0
2018-09-09T04:30:29.176Z,0
2018-09-09T04:31:45.188Z,0
2018-09-09T04:33:01.269Z,0
2018-09-09T04:34:17.204Z,0
2018-09-09T04:35:33.161Z,0
2018-09-09T04:36:49.177Z,0
2018-09-09T04:38:24.020Z,0
2018-09-09T04:39:40.055Z,0
2018-09-09T04:40:55.969Z,0
2018-09-09T04:42:11.888Z,0
2018-09-09T04:43:27.817Z,0
2018-09-09T04:44:43.709Z,0
2018-09-09T04:45:59.604Z,0
2018-09-09T04:47:15.590Z,0
2018-09-09T04:48:31.706Z,0
2018-09-09T04:49:47.656Z,0
2018-09-09T04:51:03.630Z,0
2018-09-09T04:52:18.642Z,0
2018-09-09T04:53:53.526Z,0
2018-09-09T04:55:09.600Z,0
2018-09-09T04:56:25.609Z,0
2018-09-09T04:57:41.666Z,0
2018-09-09T04:58:57.648Z,0
2018-09-09T05:00:13.724Z,0
2018-09-09T05:01:29.761Z,0
2018-09-09T05:02:45.649Z,0
2018-09-09T05:04:01.597Z,0
2018-09-09T05:05:17.533Z,0
2018-09-09T05:06:33.440Z,0
2018-09-09T05:07:49.371Z,0
2018-09-09T05:09:05.354Z,0
2018-09-09T05:10:21.412Z,0
2018-09-09T05:11:37.331Z,0
2018-09-09T05:12:53.342Z,0
2018-09-09T05:16:01.114Z,5.625
2018-09-09T05:17:17.162Z,5.625
2018-09-09T05:18:33.144Z,5.625
2018-09-09T05:19:49.061Z,5.625
2018-09-09T05:21:05.011Z,5.625
2018-09-09T05:22:20.927Z,5.625
2018-09-09T05:23:36.980Z,5.625
2018-09-09T05:24:52.954Z,5.625
2018-09-09T05:26:26.825Z,5.625
2018-09-09T05:27:42.704Z,5.625
2018-09-09T05:28:58.690Z,5.625
2018-09-09T05:30:33.524Z,5.625
2018-09-09T05:31:49.439Z,5.625
2018-09-09T05:33:05.412Z,11.25
2018-09-09T05:34:21.454Z,11.25
2018-09-09T05:35:37.447Z,11.25
2018-09-09T05:37:12.483Z,11.25
2018-09-09T05:38:28.403Z,11.25
2018-09-09T05:39:44.319Z,11.25
2018-09-09T05:41:00.296Z,11.25
2018-09-09T05:42:16.406Z,11.25
2018-09-09T05:43:32.480Z,11.25
2018-09-09T05:44:48.689Z,11.25
2018-09-09T05:46:04.524Z,11.25
2018-09-09T05:47:38.612Z,11.25
2018-09-09T05:49:12.453Z,11.25
2018-09-09T05:50:46.390Z,11.25
2018-09-09T05:52:02.370Z,11.25
2018-09-09T05:53:18.915Z,11.25
2018-09-09T05:54:53.763Z,11.25
2018-09-09T05:56:09.852Z,11.25
2018-09-09T05:57:25.819Z,16.875
2018-09-09T05:58:41.779Z,16.875
2018-09-09T05:59:57.821Z,16.875
2018-09-09T06:01:13.784Z,16.875
2018-09-09T06:02:29.712Z,16.875
2018-09-09T06:03:45.694Z,16.875
2018-09-09T06:05:01.749Z,16.875
2018-09-09T06:06:17.701Z,16.875
2018-09-09T06:07:33.639Z,16.875
2018-09-09T06:08:49.740Z,16.875
2018-09-09T06:10:05.752Z,16.875
2018-09-09T06:11:21.678Z,16.875
2018-09-09T06:12:37.970Z,16.875
2018-09-09T06:13:53.902Z,16.875
2018-09-09T06:15:09.939Z,22.5
2018-09-09T06:16:44.872Z,22.5
2018-09-09T06:18:00.859Z,22.5
2018-09-09T06:19:16.899Z,22.5
2018-09-09T06:20:32.845Z,22.5
2018-09-09T06:21:48.812Z,22.5
2018-09-09T06:23:05.087Z,22.5
2018-09-09T06:24:21.075Z,22.5
2018-09-09T06:25:37.189Z,22.5
2018-09-09T06:28:27.296Z,22.5
2018-09-09T06:30:01.171Z,22.5
2018-09-09T06:31:17.249Z,22.5
2018-09-09T06:32:33.321Z,22.5
2018-09-09T06:33:49.299Z,28.125
2018-09-09T06:35:05.387Z,28.125
2018-09-09T06:36:21.415Z,28.125
2018-09-09T06:39:29.344Z,28.125
2018-09-09T06:40:44.386Z,28.125
2018-09-09T06:42:00.306Z,28.125
2018-09-09T06:43:16.252Z,28.125
2018-09-09T06:44:32.244Z,28.125
2018-09-09T06:45:48.219Z,28.125
2018-09-09T06:47:04.232Z,28.125
2018-09-09T06:48:20.155Z,28.125
2018-09-09T06:49:36.308Z,22.5
2018-09-09T06:51:10.350Z,22.5
2018-09-09T06:52:44.300Z,22.5
2018-09-09T06:54:00.333Z,22.5
2018-09-09T06:55:34.149Z,28.125
2018-09-09T06:56:50.261Z,28.125
2018-09-09T06:58:25.100Z,28.125
2018-09-09T06:59:41.243Z,28.125
2018-09-09T07:00:57.261Z,33.75
2018-09-09T07:02:13.398Z,33.75
2018-09-09T07:03:29.296Z,33.75
2018-09-09T07:04:45.336Z,33.75
2018-09-09T07:06:01.315Z,33.75
2018-09-09T07:07:17.267Z,33.75
2018-09-09T07:08:33.197Z,39.375
2018-09-09T07:10:07.082Z,39.375
2018-09-09T07:11:41.185Z,39.375
2018-09-09T07:12:56.910Z,45
2018-09-09T07:14:12.949Z,45
2018-09-09T07:15:28.978Z,50.625
2018-09-09T07:16:44.949Z,45
2018-09-09T07:18:00.906Z,39.375
2018-09-09T07:19:16.956Z,39.375
2018-09-09T07:20:32.962Z,39.375
2018-09-09T07:21:48.941Z,39.375
2018-09-09T07:23:04.878Z,39.375
2018-09-09T07:24:20.918Z,39.375
2018-09-09T07:25:37.799Z,39.375
2018-09-09T08:00:29.664Z,61.875
2018-09-09T08:01:45.797Z,61.875
2018-09-09T08:03:01.799Z,61.875
2018-09-09T08:04:36.317Z,61.875
2018-09-09T08:06:28.669Z,67.5
2018-09-09T08:07:44.832Z,67.5
2018-09-09T08:09:00.990Z,67.5
2018-09-09T08:10:17.085Z,67.5
2018-09-09T08:12:10.045Z,73.125
2018-09-09T08:13:26.032Z,73.125
2018-09-09T08:14:42.009Z,73.125
2018-09-09T08:16:15.882Z,73.125
2018-09-09T08:17:49.822Z,73.125
2018-09-09T08:19:05.838Z,73.125
2018-09-09T08:20:39.743Z,78.75
2018-09-09T08:24:06.475Z,78.75
2018-09-09T08:25:59.217Z,78.75
2018-09-09T08:29:26.938Z,78.75
2018-09-09T08:31:18.702Z,78.75
2018-09-09T08:32:34.674Z,78.75
2018-09-09T08:36:01.421Z,78.75
2018-09-09T08:37:35.409Z,78.75
2018-09-09T08:38:51.539Z,78.75
2018-09-09T08:40:25.546Z,78.75
2018-09-09T08:41:59.449Z,78.75
2018-09-09T08:43:34.504Z,78.75
2018-09-09T08:50:45.774Z,78.75
2018-09-09T08:52:19.699Z,78.75
2018-09-09T08:55:45.623Z,84.375
2018-09-09T08:59:11.403Z,84.375
2018-09-09T09:01:03.570Z,84.375
2018-09-09T09:02:38.593Z,78.75
2018-09-09T09:04:12.688Z,78.75
2018-09-09T09:05:28.721Z,73.125
2018-09-09T09:07:02.880Z,78.75
2018-09-09T09:08:36.804Z,84.375
2018-09-09T09:10:10.723Z,84.375
2018-09-09T09:11:26.806Z,90
2018-09-09T09:12:43.021Z,90
2018-09-09T09:13:59.037Z,84.375
2018-09-09T09:15:15.207Z,84.375
2018-09-09T09:16:49.232Z,90
2018-09-09T09:18:05.375Z,90
2018-09-09T09:19:21.422Z,90
2018-09-09T09:20:38.449Z,90
2018-09-09T09:21:54.461Z,90
2018-09-09T09:25:02.397Z,90
2018-09-09T09:26:18.421Z,90
2018-09-09T09:27:34.523Z,90
2018-09-09T09:30:42.583Z,90
2018-09-09T09:34:08.413Z,90
2018-09-09T09:35:42.306Z,90
2018-09-09T09:37:16.272Z,84.375
2018-09-09T09:38:32.386Z,84.375
2018-09-09T09:39:48.452Z,90
2018-09-09T09:41:04.624Z,90
2018-09-09T09:42:39.482Z,90
2018-09-09T09:44:13.449Z,95.625
2018-09-09T09:45:29.453Z,95.625
2018-09-09T09:46:45.448Z,95.625
2018-09-09T09:48:19.435Z,95.625
2018-09-09T09:49:53.347Z,95.625
2018-09-09T09:51:28.288Z,95.625
2018-09-09T09:52:44.526Z,95.625
2018-09-09T09:54:18.471Z,95.625
2018-09-09T09:55:34.635Z,95.625
2018-09-09T09:56:50.703Z,95.625
2018-09-09T09:58:06.661Z,95.625
2018-09-09T09:59:22.625Z,95.625
2018-09-09T10:02:30.464Z,95.625
2018-09-09T10:03:46.429Z,95.625
2018-09-09T10:05:02.447Z,95.625
2018-09-09T10:06:18.459Z,95.625
2018-09-09T10:07:34.639Z,95.625
2018-09-09T10:09:09.590Z,95.625
2018-09-09T10:10:25.507Z,95.625
2018-09-09T10:11:41.499Z,95.625
2018-09-09T10:13:15.585Z,95.625
2018-09-09T10:14:50.512Z,95.625
2018-09-09T10:16:25.408Z,95.625
2018-09-09T10:17:41.450Z,95.625
2018-09-09T10:19:16.412Z,95.625
2018-09-09T10:20:32.447Z,95.625
2018-09-09T10:21:48.422Z,95.625
2018-09-09T10:23:04.602Z,95.625
2018-09-09T10:24:20.755Z,95.625
2018-09-09T10:25:36.863Z,95.625
2018-09-09T10:26:53.009Z,95.625
2018-09-09T10:28:09.065Z,95.625
2018-09-09T10:29:44.091Z,95.625
2018-09-09T10:31:00.269Z,95.625
2018-09-09T10:32:16.253Z,95.625
2018-09-09T10:33:32.280Z,95.625
2018-09-09T10:35:06.243Z,95.625
2018-09-09T10:36:22.215Z,95.625
2018-09-09T10:37:38.374Z,95.625
2018-09-09T10:38:54.565Z,95.625
2018-09-09T10:40:10.568Z,95.625
2018-09-09T10:41:26.706Z,95.625
2018-09-09T10:42:42.697Z,95.625
2018-09-09T10:44:16.674Z,95.625
2018-09-09T10:45:32.698Z,95.625
2018-09-09T10:46:48.783Z,95.625
2018-09-09T10:48:04.895Z,95.625
2018-09-09T10:49:21.048Z,95.625
2018-09-09T10:50:37.187Z,95.625
2018-09-09T10:51:53.218Z,95.625
2018-09-09T10:53:10.361Z,95.625
2018-09-09T10:54:45.309Z,95.625
2018-09-09T10:56:02.318Z,95.625
2018-09-09T10:57:18.314Z,95.625
2018-09-09T10:58:34.369Z,95.625
2018-09-09T10:59:50.475Z,95.625
2018-09-09T11:01:06.578Z,95.625
2018-09-09T11:02:40.515Z,95.625
2018-09-09T11:03:56.609Z,95.625
2018-09-09T11:05:12.589Z,95.625
2018-09-09T11:06:28.598Z,95.625
2018-09-09T11:07:44.630Z,95.625
2018-09-09T11:09:00.739Z,95.625
2018-09-09T11:10:34.695Z,84.375
2018-09-09T11:11:50.743Z,95.625
2018-09-09T11:13:06.854Z,95.625
2018-09-09T11:14:40.807Z,95.625
2018-09-09T11:15:56.969Z,95.625
2018-09-09T11:17:12.965Z,95.625
2018-09-09T11:19:04.851Z,95.625
2018-09-09T11:20:20.881Z,95.625
2018-09-09T11:21:36.958Z,90
2018-09-09T11:22:52.920Z,95.625
2018-09-09T11:25:42.904Z,95.625
2018-09-09T11:26:58.933Z,90
2018-09-09T11:28:14.980Z,90
2018-09-09T11:29:30.993Z,90
2018-09-09T11:31:05.937Z,90
2018-09-09T11:32:39.889Z,90
2018-09-09T11:34:13.730Z,90
2018-09-09T11:37:03.914Z,90
2018-09-09T11:38:37.847Z,90
2018-09-09T11:39:53.972Z,90
2018-09-09T11:41:28.939Z,90
2018-09-09T11:44:36.706Z,90
2018-09-09T11:45:52.964Z,90
2018-09-09T11:47:28.035Z,90
2018-09-09T11:48:44.600Z,90
2018-09-09T11:50:38.148Z,90
2018-09-09T11:52:13.140Z,90
2018-09-09T11:53:47.078Z,84.375
2018-09-09T11:55:39.976Z,84.375
2018-09-09T11:57:14.042Z,84.375
2018-09-09T11:59:05.925Z,84.375
2018-09-09T12:00:58.783Z,84.375
2018-09-09T12:02:14.880Z,84.375
2018-09-09T12:03:30.853Z,84.375
2018-09-09T12:04:46.864Z,84.375
2018-09-09T12:06:38.795Z,84.375
2018-09-09T12:07:55.039Z,84.375
2018-09-09T12:09:47.944Z,84.375
2018-09-09T12:11:04.039Z,84.375
2018-09-09T12:12:38.038Z,84.375
2018-09-09T12:14:12.019Z,84.375
2018-09-09T12:15:45.932Z,84.375
2018-09-09T12:17:02.131Z,84.375
2018-09-09T12:18:36.074Z,84.375
2018-09-09T12:21:43.990Z,84.375
2018-09-09T12:23:00.098Z,84.375
2018-09-09T12:26:27.814Z,78.75
2018-09-09T12:28:01.920Z,84.375
2018-09-09T12:29:17.947Z,84.375
2018-09-09T12:30:33.953Z,78.75
2018-09-09T12:32:07.889Z,84.375
2018-09-09T12:33:41.786Z,84.375
2018-09-09T12:35:33.603Z,61.875
2018-09-09T12:36:49.701Z,78.75
2018-09-09T12:38:24.598Z,78.75
2018-09-09T12:41:33.370Z,78.75
2018-09-09T12:43:08.361Z,78.75
2018-09-09T12:44:24.453Z,78.75
2018-09-09T12:45:40.559Z,78.75
2018-09-09T12:47:14.492Z,78.75
2018-09-09T12:48:48.558Z,84.375
2018-09-09T12:50:23.498Z,84.375
2018-09-09T12:51:57.467Z,84.375
2018-09-09T12:53:31.419Z,84.375
2018-09-09T12:54:47.452Z,84.375
2018-09-09T12:56:21.396Z,84.375
2018-09-09T12:58:13.235Z,84.375
2018-09-09T12:59:29.303Z,84.375
2018-09-09T13:00:45.368Z,84.375
2018-09-09T13:02:01.396Z,84.375
2018-09-09T13:03:17.567Z,84.375
2018-09-09T13:04:33.653Z,84.375
2018-09-09T13:05:49.758Z,84.375
2018-09-09T13:07:05.804Z,84.375
2018-09-09T13:08:22.034Z,84.375
2018-09-09T13:09:56.983Z,84.375
2018-09-09T13:11:13.116Z,84.375
2018-09-09T13:12:47.056Z,84.375
2018-09-09T13:14:03.036Z,84.375
2018-09-09T13:15:37.072Z,84.375
2018-09-09T13:17:10.934Z,84.375
2018-09-09T13:18:27.011Z,84.375
2018-09-09T13:19:43.195Z,84.375
2018-09-09T13:21:17.090Z,84.375
2018-09-09T13:22:33.115Z,84.375
2018-09-09T13:25:47.973Z,84.375
2018-09-09T13:27:04.032Z,84.375
2018-09-09T13:28:37.935Z,84.375
2018-09-09T13:29:53.901Z,84.375
2018-09-09T13:31:10.039Z,84.375
2018-09-09T13:32:27.184Z,84.375
2018-09-09T13:33:43.173Z,84.375
2018-09-09T13:34:59.314Z,84.375
2018-09-09T13:36:15.528Z,84.375
2018-09-09T13:37:31.718Z,84.375
2018-09-09T13:38:48.224Z,84.375
2018-09-09T13:40:04.404Z,84.375
2018-09-09T13:41:20.432Z,84.375
2018-09-09T13:42:36.471Z,84.375
2018-09-09T13:43:52.458Z,84.375
2018-09-09T13:46:49.773Z,84.375
2018-09-09T13:48:06.049Z,84.375
2018-09-09T13:49:40.543Z,84.375
2018-09-09T13:50:56.726Z,84.375
2018-09-09T13:53:35.817Z,84.375
2018-09-09T13:55:10.855Z,84.375
2018-09-09T13:56:26.970Z,90
2018-09-09T13:57:42.952Z,84.375
2018-09-09T14:02:06.924Z,84.375
2018-09-09T14:03:22.954Z,84.375
2018-09-09T14:16:21.274Z,84.375
2018-09-09T14:17:37.305Z,84.375
2018-09-09T14:18:53.417Z,84.375
2018-09-09T14:20:09.545Z,84.375
2018-09-09T14:21:25.580Z,84.375
2018-09-09T14:22:41.666Z,84.375
2018-09-09T14:24:15.695Z,84.375
2018-09-09T14:25:31.781Z,84.375
2018-09-09T14:26:47.712Z,84.375
2018-09-09T14:28:03.778Z,84.375
2018-09-09T14:29:38.675Z,84.375
2018-09-09T14:31:12.575Z,84.375
2018-09-09T14:32:28.734Z,84.375
2018-09-09T14:33:44.810Z,84.375
2018-09-09T14:35:00.869Z,84.375
2018-09-09T14:36:17.226Z,84.375
2018-09-09T14:37:33.412Z,84.375
2018-09-09T14:38:49.427Z,84.375
2018-09-09T14:40:24.384Z,90
2018-09-09T14:41:40.343Z,95.625
2018-09-09T14:45:13.644Z,371.25
2018-09-09T14:46:29.655Z,354.375
2018-09-09T14:49:27.736Z,90
2018-09-09T14:51:01.752Z,90
2018-09-09T14:52:17.726Z,90
2018-09-09T14:53:51.667Z,90
2018-09-09T15:16:43.251Z,90
2018-09-09T15:20:10.393Z,551.25
2018-09-09T15:21:27.620Z,1136.25
2018-09-09T15:22:43.726Z,450
2018-09-09T15:24:17.871Z,84.375
2018-09-09T15:25:34.075Z,84.375
2018-09-09T15:27:08.079Z,84.375
2018-09-09T15:28:41.962Z,84.375
2018-09-09T15:29:58.149Z,84.375
2018-09-09T15:31:49.998Z,84.375
2018-09-09T15:33:25.246Z,78.75
2018-09-09T15:35:00.226Z,78.75
2018-09-09T15:36:16.239Z,78.75
2018-09-09T15:38:08.050Z,78.75
2018-09-09T15:39:24.064Z,78.75
2018-09-09T15:40:58.204Z,78.75
2018-09-09T15:42:32.097Z,78.75
2018-09-09T15:44:06.065Z,84.375
2018-09-09T15:45:40.934Z,286.875
2018-09-09T15:48:37.450Z,67.5
2018-09-09T15:50:11.713Z,61.875
2018-09-09T15:51:46.645Z,61.875
2018-09-09T15:53:21.665Z,61.875
2018-09-09T15:54:55.683Z,61.875
2018-09-09T15:56:30.614Z,61.875
2018-09-09T15:58:06.325Z,61.875
2018-09-09T15:59:40.299Z,56.25
2018-09-09T16:01:14.251Z,56.25
2018-09-09T16:02:30.315Z,56.25
2018-09-09T16:15:53.962Z,56.25
2018-09-09T16:17:10.003Z,50.625
2018-09-09T16:18:26.126Z,50.625
2018-09-09T16:19:42.185Z,50.625
2018-09-09T16:21:16.137Z,50.625
2018-09-09T16:22:49.975Z,50.625
2018-09-09T16:24:23.992Z,50.625
2018-09-09T16:25:39.973Z,50.625
2018-09-09T16:27:14.045Z,50.625
2018-09-09T16:28:30.067Z,50.625
2018-09-09T16:30:04.000Z,45
2018-09-09T16:31:20.022Z,45
2018-09-09T16:32:36.222Z,45
2018-09-09T16:34:10.241Z,45
2018-09-09T16:35:45.286Z,45
2018-09-09T16:37:19.451Z,45
2018-09-09T16:38:35.464Z,45
2018-09-09T16:39:51.620Z,39.375
2018-09-09T16:41:26.616Z,39.375
2018-09-09T16:42:42.631Z,39.375
2018-09-09T16:43:58.647Z,39.375
2018-09-09T16:45:32.563Z,39.375
2018-09-09T16:46:48.623Z,39.375
2018-09-09T16:48:22.541Z,33.75
2018-09-09T16:49:38.586Z,33.75
2018-09-09T16:51:12.422Z,33.75
2018-09-09T16:52:28.499Z,33.75
2018-09-09T16:53:44.575Z,33.75
2018-09-09T16:55:19.548Z,28.125
2018-09-09T16:56:35.665Z,28.125
2018-09-09T16:58:10.977Z,28.125
2018-09-09T16:59:27.185Z,28.125
2018-09-09T17:01:01.100Z,22.5
2018-09-09T17:04:10.075Z,22.5
2018-09-09T17:05:26.099Z,22.5
2018-09-09T17:12:00.760Z,22.5
2018-09-09T17:13:34.843Z,22.5
2018-09-09T17:16:43.649Z,45
2018-09-09T17:18:35.748Z,95.625
2018-09-09T17:20:10.658Z,16.875
2018-09-09T17:21:44.699Z,16.875
2018-09-09T17:23:00.906Z,67.5
2018-09-09T17:24:35.041Z,39.375
2018-09-09T17:26:08.993Z,16.875
2018-09-09T17:27:25.085Z,11.25
2018-09-09T17:28:59.038Z,5.625
2018-09-09T17:30:15.063Z,5.625
2018-09-09T17:31:48.995Z,5.625
2018-09-09T17:33:23.001Z,5.625
2018-09-09T17:34:39.280Z,5.625
2018-09-09T17:35:55.348Z,0
2018-09-09T17:37:11.496Z,0
2018-09-09T17:38:45.952Z,0
2018-09-09T17:40:20.114Z,0
2018-09-09T17:41:36.378Z,0
2018-09-09T17:42:52.558Z,0
2018-09-09T17:44:26.532Z,0
2018-09-09T17:46:18.494Z,0
2018-09-09T17:47:34.591Z,0
2018-09-09T17:49:08.587Z,0
2018-09-09T17:50:24.696Z,0
2018-09-09T17:52:00.445Z,0
2018-09-09T17:53:16.605Z,0
2018-09-09T17:54:51.933Z,0
2018-09-09T17:58:01.293Z,0
2018-09-09T17:59:17.310Z,0
2018-09-09T18:00:51.314Z,0
2018-09-09T18:02:26.302Z,0
2018-09-09T18:04:19.137Z,0
2018-09-09T18:05:35.316Z,0
2018-09-09T18:07:10.284Z,0
2018-09-09T18:08:26.336Z,0
2018-09-09T18:10:00.365Z,0
2018-09-09T18:11:16.484Z,0
2018-09-09T18:12:51.498Z,0
2018-09-09T18:14:26.524Z,0
2018-09-09T18:16:00.480Z,0
2018-09-09T18:17:16.671Z,0
2018-09-09T18:18:33.310Z,0
2018-09-09T18:19:49.601Z,0
2018-09-09T18:21:23.896Z,0
2018-09-09T18:23:15.904Z,0
2018-09-09T18:24:31.998Z,0
2018-09-09T18:26:05.905Z,0
2018-09-09T18:27:39.912Z,0
2018-09-09T18:29:31.845Z,0
2018-09-09T18:31:05.734Z,0
2018-09-09T18:32:21.932Z,0
2018-09-09T18:33:55.975Z,0
2018-09-09T18:35:29.851Z,0
2018-09-09T18:37:03.768Z,0
2018-09-09T18:38:19.936Z,0
2018-09-09T18:39:53.827Z,0
2018-09-09T18:41:09.965Z,0
2018-09-09T18:42:25.960Z,0
2018-09-09T18:43:59.959Z,0
2018-09-09T18:45:15.932Z,0
2018-09-09T18:46:32.210Z,0
2018-09-09T18:48:24.133Z,0
2018-09-09T18:49:40.157Z,0
2018-09-09T18:51:15.172Z,0
2018-09-09T18:52:31.295Z,0
2018-09-09T18:54:05.208Z,0
2018-09-09T18:55:21.357Z,0
2018-09-09T18:56:37.740Z,0
2018-09-09T18:58:11.669Z,0
2018-09-09T19:01:09.262Z,0
2018-09-09T19:02:43.223Z,0
2018-09-09T19:03:59.313Z,0
2018-09-09T19:05:15.497Z,0
2018-09-09T19:29:38.655Z,0
2018-09-09T19:30:54.900Z,0
2018-09-09T19:32:29.938Z,0
2018-09-09T19:33:46.256Z,0
2018-09-09T19:35:02.885Z,0
2018-09-09T19:36:37.020Z,0
2018-09-09T19:38:10.927Z,0
2018-09-09T19:39:26.996Z,0
2018-09-09T19:40:43.067Z,0
2018-09-09T19:42:17.006Z,0
2018-09-09T19:43:33.093Z,0
2018-09-09T19:44:49.206Z,0
2018-09-09T19:46:05.252Z,0
2018-09-09T19:47:40.149Z,0
2018-09-09T19:48:56.230Z,0
2018-09-09T19:50:12.502Z,0
2018-09-09T19:51:46.540Z,0
2018-09-09T19:53:02.657Z,0
2018-09-09T19:55:52.777Z,0
2018-09-09T19:57:08.794Z,0
2018-09-09T19:58:24.853Z,0
2018-09-09T19:59:40.852Z,0
2018-09-09T20:01:15.943Z,0
2018-09-09T20:02:32.291Z,0
2018-09-09T20:03:48.485Z,0
2018-09-09T20:05:22.422Z,0
2018-09-09T20:06:39.653Z,0
2018-09-09T20:07:55.679Z,0
2018-09-09T20:09:11.646Z,0
2018-09-09T20:10:27.839Z,0
2018-09-09T20:12:01.814Z,0
2018-09-09T20:13:36.691Z,0
2018-09-09T20:15:10.897Z,0
2018-09-09T20:17:36.881Z,0
2018-09-09T20:20:26.916Z,0
2018-09-09T20:21:42.996Z,0
2018-09-09T20:22:59.044Z,0
2018-09-09T20:24:15.019Z,0
2018-09-09T20:25:31.209Z,0
2018-09-09T20:26:47.442Z,0
2018-09-09T20:28:03.546Z,0
2018-09-09T20:29:19.568Z,0
2018-09-09T20:30:53.491Z,0
2018-09-09T20:32:09.901Z,0
2018-09-09T20:33:43.840Z,0
2018-09-09T20:35:00.046Z,0
2018-09-09T20:36:16.062Z,0
2018-09-09T20:37:32.130Z,0
2018-09-09T20:39:06.068Z,0
2018-09-09T20:40:22.133Z,0
2018-09-09T20:41:57.016Z,0
2018-09-09T20:43:30.985Z,0
2018-09-09T20:45:04.963Z,0
2018-09-09T20:46:21.109Z,0
2018-09-09T20:47:37.234Z,0
2018-09-09T20:48:53.245Z,0
2018-09-09T20:50:09.343Z,0
2018-09-09T20:51:25.457Z,0
2018-09-09T20:52:59.363Z,0
2018-09-09T20:54:15.416Z,0
2018-09-09T20:55:31.613Z,0
2018-09-09T20:56:47.856Z,0
2018-09-09T20:58:21.867Z,0
2018-09-09T20:59:37.934Z,0
2018-09-09T21:00:53.952Z,0
2018-09-09T21:02:10.003Z,0
2018-09-09T21:03:26.051Z,0
2018-09-09T21:04:42.143Z,0
2018-09-09T21:05:58.197Z,0
2018-09-09T21:07:32.158Z,0
2018-09-09T21:08:48.262Z,0
2018-09-09T21:10:04.306Z,0
2018-09-09T21:11:20.326Z,0
2018-09-09T21:12:36.377Z,0
2018-09-09T21:13:52.336Z,0
2018-09-09T21:16:43.635Z,0
2018-09-09T21:17:59.594Z,0
2018-09-09T21:19:15.639Z,0
2018-09-09T21:20:31.662Z,0
2018-09-09T21:22:05.688Z,0
2018-09-09T21:23:39.597Z,0
2018-09-09T21:24:55.663Z,0
2018-09-09T21:26:11.720Z,0
2018-09-09T21:27:28.669Z,0
2018-09-09T21:28:45.839Z,0
2018-09-09T21:30:01.819Z,0
2018-09-09T21:31:35.730Z,0
2018-09-09T21:32:51.818Z,0
2018-09-09T21:34:07.968Z,0
2018-09-09T21:35:24.058Z,0
2018-09-09T21:36:40.041Z,0
2018-09-09T21:38:14.328Z,0
2018-09-09T21:39:49.241Z,0
2018-09-09T21:41:24.122Z,0
2018-09-09T21:42:57.971Z,0
2018-09-09T21:44:14.157Z,0
2018-09-09T21:45:48.064Z,0
2018-09-09T21:47:22.005Z,0
2018-09-09T21:48:38.085Z,0
2018-09-09T21:50:11.966Z,0
2018-09-09T21:51:28.375Z,0
2018-09-09T21:52:44.582Z,0
2018-09-09T21:54:00.658Z,0
2018-09-09T21:55:16.729Z,0
2018-09-09T21:56:32.883Z,0